Time;durP1;ratioP1;P1;durP2;ratioP2;P2;SDS_P1;SDS_P2;PMS_P1;PMS_P2;Temp;Humidity;BMP_temperature;BMP_pressure;BME280_temperature;BME280_humidity;BME280_pressure;Samples;Min_cycle;Max_cycle;Signal;HPM_P1;HPM_P2
2023/04/05 00:00:09;;;;;;;2.15;1.00;;;;;;;18.70;32.67;102360.34;16108884;19;132180;-44
2023/04/05 00:05:33;;;;;;;4.07;1.08;;;;;;;18.68;32.74;102353.28;16112646;19;129525;-47
2023/04/05 00:10:55;;;;;;;4.03;1.60;;;;;;;18.66;32.25;102361.81;16113093;19;129394;-45
2023/04/05 00:16:18;;;;;;;2.15;1.00;;;;;;;18.63;32.51;102351.13;16105589;19;129390;-45
2023/04/05 00:21:40;;;;;;;1.92;1.17;;;;;;;18.62;32.69;102357.75;16113449;19;129588;-44
2023/04/05 00:27:02;;;;;;;3.08;1.35;;;;;;;18.60;32.20;102351.56;16112842;19;130255;-45
2023/04/05 00:32:24;;;;;;;3.65;1.15;;;;;;;18.58;32.41;102359.25;16105795;19;131208;-46
2023/04/05 00:37:46;;;;;;;1.67;1.30;;;;;;;18.57;32.32;102357.53;16102814;19;130848;-45
2023/04/05 00:43:08;;;;;;;2.17;0.95;;;;;;;18.54;32.54;102347.72;16105376;19;130281;-47
2023/04/05 00:48:32;;;;;;;1.42;1.08;;;;;;;18.52;32.58;102349.00;16106550;19;130033;-44
2023/04/05 00:53:54;;;;;;;2.83;1.15;;;;;;;18.50;32.70;102349.22;16106033;19;132638;-49
2023/04/05 00:59:16;;;;;;;4.18;1.20;;;;;;;18.49;32.56;102344.75;16106092;19;131683;-46
2023/04/05 01:04:40;;;;;;;1.55;0.80;;;;;;;18.48;32.69;102350.47;16106777;19;129983;-46
2023/04/05 01:10:04;;;;;;;2.03;0.80;;;;;;;18.45;32.49;102346.22;16114099;19;129431;-47
2023/04/05 01:15:26;;;;;;;1.25;1.10;;;;;;;18.41;32.69;102343.00;16109396;19;129671;-48
2023/04/05 01:20:54;;;;;;;1.65;0.98;;;;;;;18.40;32.56;102340.47;16109448;19;129750;-45
2023/04/05 01:26:43;;;;;;;3.17;1.35;;;;;;;18.38;32.72;102331.47;16111140;19;130644;-45
2023/04/05 01:32:30;;;;;;;1.95;1.20;;;;;;;18.33;32.53;102332.09;16109593;19;130257;-46
2023/04/05 01:38:01;;;;;;;1.77;1.10;;;;;;;18.32;32.26;102324.84;16109972;19;130408;-49
2023/04/05 01:43:23;;;;;;;1.85;1.05;;;;;;;18.29;32.48;102328.03;16105189;19;130751;-44
2023/04/05 01:48:48;;;;;;;1.58;1.10;;;;;;;18.27;32.71;102325.50;16106110;19;129941;-47
2023/04/05 01:54:10;;;;;;;2.93;1.00;;;;;;;18.24;32.78;102309.28;16112224;19;129879;-43
2023/04/05 01:59:31;;;;;;;2.75;1.08;;;;;;;18.24;32.49;102305.63;16101130;19;130414;-46
2023/04/05 02:04:57;;;;;;;1.48;0.98;;;;;;;18.22;32.53;102299.44;16105603;19;129172;-48
2023/04/05 02:10:22;;;;;;;1.00;0.77;;;;;;;18.21;32.76;102298.63;16108812;19;130060;-46
2023/04/05 02:15:49;;;;;;;2.05;0.80;;;;;;;18.20;32.72;102290.53;16128511;19;129531;-47
2023/04/05 02:21:10;;;;;;;1.45;0.90;;;;;;;18.18;32.89;102295.41;16121592;19;130007;-45
2023/04/05 02:26:32;;;;;;;1.48;0.88;;;;;;;18.17;32.97;102288.16;16117759;19;130250;-45
2023/04/05 02:31:55;;;;;;;2.00;0.90;;;;;;;18.15;32.78;102286.47;16115608;19;130513;-49
2023/04/05 02:37:20;;;;;;;1.67;0.90;;;;;;;18.15;32.69;102277.31;16124336;19;129727;-44
2023/04/05 02:42:42;;;;;;;1.10;0.83;;;;;;;18.11;32.93;102276.00;16114457;19;130318;-44
2023/04/05 02:48:04;;;;;;;1.38;0.80;;;;;;;18.10;32.93;102275.13;16127095;19;129714;-46
2023/04/05 02:53:26;;;;;;;1.73;1.00;;;;;;;18.08;32.61;102271.75;16116906;19;129809;-46
2023/04/05 02:58:48;;;;;;;1.90;1.00;;;;;;;18.06;32.88;102261.94;16118632;19;130637;-46
2023/04/05 03:04:13;;;;;;;1.08;0.88;;;;;;;18.04;32.84;102253.84;16101322;19;129480;-47
2023/04/05 03:09:37;;;;;;;1.33;1.02;;;;;;;18.04;32.56;102252.97;16118409;19;129788;-45
2023/04/05 03:14:59;;;;;;;2.25;1.33;;;;;;;18.01;32.54;102248.72;16120083;19;130535;-45
2023/04/05 03:20:21;;;;;;;1.23;0.93;;;;;;;17.99;32.77;102253.59;16113326;19;129507;-44
2023/04/05 03:25:43;;;;;;;2.78;1.13;;;;;;;17.98;32.62;102249.13;16116853;19;129931;-45
2023/04/05 03:31:05;;;;;;;1.65;0.90;;;;;;;17.95;32.72;102244.03;16115237;19;130651;-45
2023/04/05 03:36:40;;;;;;;2.20;1.05;;;;;;;17.94;32.83;102245.94;16117487;19;130294;-45
2023/04/05 03:42:02;;;;;;;1.57;1.07;;;;;;;17.92;32.65;102247.22;16116012;19;130393;-46
2023/04/05 03:47:25;;;;;;;1.77;1.20;;;;;;;17.91;32.86;102245.50;16116142;19;130754;-45
2023/04/05 03:52:47;;;;;;;1.13;1.00;;;;;;;17.88;32.55;102244.00;16115330;19;131037;-43
2023/04/05 03:58:08;;;;;;;2.28;0.90;;;;;;;17.87;32.59;102234.00;16111884;19;130940;-45
2023/04/05 04:03:30;;;;;;;1.60;1.08;;;;;;;17.85;32.79;102230.59;16113151;19;131703;-44
2023/04/05 04:08:52;;;;;;;1.98;1.27;;;;;;;17.82;32.48;102226.31;16115530;19;129806;-45
2023/04/05 04:14:14;;;;;;;1.73;1.00;;;;;;;17.81;32.62;102230.16;16112901;19;129077;-46
2023/04/05 04:19:36;;;;;;;1.35;0.90;;;;;;;17.81;32.44;102237.59;16112933;19;129445;-47
2023/04/05 04:25:03;;;;;;;4.47;1.52;;;;;;;17.79;32.83;102229.50;16116372;19;130422;-44
2023/04/05 04:30:25;;;;;;;2.70;0.80;;;;;;;17.77;32.49;102216.94;16113012;19;130812;-50
2023/04/05 04:35:46;;;;;;;0.95;0.80;;;;;;;17.75;32.45;102230.97;16108925;19;132237;-44
2023/04/05 04:41:12;;;;;;;1.17;0.95;;;;;;;17.75;32.65;102228.22;16116804;19;129713;-44
2023/04/05 04:46:41;;;;;;;1.65;1.10;;;;;;;17.73;32.81;102229.47;16110696;19;130084;-43
2023/04/05 04:52:03;;;;;;;1.45;0.95;;;;;;;17.71;32.79;102226.94;16113496;19;130305;-45
2023/04/05 04:57:26;;;;;;;1.27;1.05;;;;;;;17.69;32.37;102224.34;16117416;19;131123;-44
2023/04/05 05:02:50;;;;;;;1.40;1.15;;;;;;;17.68;32.42;102217.13;16114754;19;130519;-47
2023/04/05 05:08:13;;;;;;;0.90;0.80;;;;;;;17.77;32.65;102212.25;16115562;19;129303;-48
2023/04/05 05:13:35;;;;;;;2.08;1.02;;;;;;;18.20;32.05;102210.19;16112586;19;129736;-44
2023/04/05 05:18:57;;;;;;;1.63;0.85;;;;;;;18.83;31.42;102222.78;16109408;19;130650;-45
2023/04/05 05:24:19;;;;;;;2.63;1.00;;;;;;;19.32;31.04;102220.50;16111873;19;131075;-49
2023/04/05 05:29:41;;;;;;;2.00;1.10;;;;;;;19.58;30.63;102225.09;16114049;19;129664;-52
2023/04/05 05:35:03;;;;;;;3.47;1.05;;;;;;;19.73;30.31;102226.72;16110580;19;129596;-51
2023/04/05 05:40:26;;;;;;;1.52;1.10;;;;;;;19.74;30.19;102220.09;16114079;19;131035;-47
2023/04/05 05:45:50;;;;;;;2.30;1.20;;;;;;;19.65;30.19;102230.59;16116951;19;129704;-44
2023/04/05 05:51:12;;;;;;;1.77;1.23;;;;;;;19.57;30.45;102228.09;16128155;19;129561;-46
2023/04/05 05:56:34;;;;;;;6.32;1.70;;;;;;;19.52;30.75;102234.31;16127008;19;130529;-46
2023/04/05 06:01:56;;;;;;;3.40;1.38;;;;;;;19.49;30.68;102237.53;16125999;19;129644;-46
2023/04/05 06:07:18;;;;;;;2.35;1.50;;;;;;;19.48;30.98;102230.25;16121921;19;129740;-45
2023/04/05 06:12:40;;;;;;;3.90;1.45;;;;;;;19.45;30.95;102225.16;16120532;19;130505;-48
2023/04/05 06:18:02;;;;;;;3.10;1.52;;;;;;;19.43;31.09;102238.41;16117052;19;135899;-53
2023/04/05 06:23:23;;;;;;;2.28;1.60;;;;;;;19.41;30.94;102246.09;16127902;19;129964;-45
2023/04/05 06:28:49;;;;;;;4.32;1.50;;;;;;;19.39;31.19;102243.53;16125416;19;129895;-45
2023/04/05 06:34:10;;;;;;;4.30;1.80;;;;;;;19.37;31.12;102242.91;16124881;19;129199;-44
2023/04/05 06:39:32;;;;;;;3.38;1.40;;;;;;;19.38;30.84;102237.13;16123487;19;129602;-43
2023/04/05 06:44:54;;;;;;;6.47;1.52;;;;;;;19.41;30.87;102240.56;16124097;19;129656;-43
2023/04/05 06:50:16;;;;;;;5.97;1.48;;;;;;;19.44;30.95;102246.50;16124884;19;131242;-42
2023/04/05 06:55:38;;;;;;;1.80;1.30;;;;;;;19.48;30.90;102242.22;16122956;19;130290;-45
2023/04/05 07:01:00;;;;;;;2.45;1.25;;;;;;;19.51;30.63;102236.22;16124404;19;129624;-44
2023/04/05 07:06:25;;;;;;;3.53;1.25;;;;;;;19.55;30.73;102247.75;16121101;19;129701;-43
2023/04/05 07:11:47;;;;;;;4.93;1.30;;;;;;;19.58;31.06;102241.75;16125557;19;131309;-44
2023/04/05 07:17:08;;;;;;;3.63;1.20;;;;;;;19.60;30.88;102234.03;16119346;19;129847;-45
2023/04/05 07:22:30;;;;;;;2.63;1.40;;;;;;;19.62;30.98;102240.25;16120269;19;129259;-47
2023/04/05 07:27:52;;;;;;;6.05;1.42;;;;;;;19.61;31.06;102229.38;16118643;19;129429;-43
2023/04/05 07:33:15;;;;;;;1.63;1.30;;;;;;;19.61;30.65;102235.75;16119416;19;130258;-43
2023/04/05 07:38:37;;;;;;;2.33;1.30;;;;;;;19.61;30.81;102234.91;16117699;19;129832;-47
2023/04/05 07:43:59;;;;;;;3.00;1.25;;;;;;;19.61;30.57;102224.66;16118975;19;129613;-44
2023/04/05 07:49:25;;;;;;;3.60;1.50;;;;;;;19.65;30.70;102227.81;16113431;19;130210;-44
2023/04/05 07:54:48;;;;;;;4.82;1.70;;;;;;;19.65;30.55;102237.03;16117689;19;130885;-45
2023/04/05 08:00:12;;;;;;;3.25;1.48;;;;;;;19.69;30.81;102238.25;16119382;19;130230;-47
2023/04/05 08:05:34;;;;;;;2.67;1.40;;;;;;;19.72;30.53;102237.00;16118506;19;129928;-44
2023/04/05 08:10:56;;;;;;;4.15;1.60;;;;;;;19.76;30.44;102229.06;16114417;19;131115;-45
2023/04/05 08:16:17;;;;;;;2.72;1.25;;;;;;;19.78;30.82;102229.69;16113900;19;129302;-44
2023/04/05 08:21:39;;;;;;;2.80;1.40;;;;;;;19.82;30.56;102226.25;16116750;19;131712;-49
2023/04/05 08:27:01;;;;;;;2.55;1.25;;;;;;;19.83;30.41;102227.94;16116020;19;135093;-49
2023/04/05 08:32:23;;;;;;;3.28;1.10;;;;;;;19.84;30.77;102231.56;16116780;19;129304;-47
2023/04/05 08:37:47;;;;;;;2.60;1.10;;;;;;;19.82;30.67;102229.03;16118935;19;129738;-43
2023/04/05 08:43:27;;;;;;;3.42;1.33;;;;;;;19.83;30.55;102216.84;16118001;19;130509;-45
2023/04/05 08:48:49;;;;;;;1.73;1.08;;;;;;;19.80;30.80;102213.66;16115997;19;130275;-45
2023/04/05 08:54:11;;;;;;;1.73;1.15;;;;;;;19.78;30.85;102215.81;16113397;19;129556;-46
2023/04/05 08:59:37;;;;;;;3.65;1.30;;;;;;;19.77;30.79;102211.34;16116164;19;130374;-45
2023/04/05 09:05:00;;;;;;;3.17;1.27;;;;;;;19.74;30.64;102211.75;16115954;19;130740;-46
2023/04/05 09:10:22;;;;;;;2.50;0.93;;;;;;;19.72;30.51;102219.47;16111967;19;130197;-45
2023/04/05 09:15:45;;;;;;;3.00;1.30;;;;;;;19.66;30.56;102204.53;16114346;19;129523;-46
2023/04/05 09:21:08;;;;;;;2.05;1.08;;;;;;;19.61;30.99;102208.00;16130746;19;129531;-45
2023/04/05 09:26:30;;;;;;;3.03;1.27;;;;;;;19.57;30.60;102194.78;16144156;19;129986;-46
2023/04/05 09:31:53;;;;;;;3.78;1.15;;;;;;;19.52;30.58;102201.00;16144315;19;129604;-46
2023/04/05 09:37:17;;;;;;;3.88;1.40;;;;;;;19.47;30.88;102200.81;16142993;19;129957;-49
2023/04/05 09:42:46;;;;;;;2.90;1.00;;;;;;;19.42;30.77;102193.13;16144321;19;129116;-48
2023/04/05 09:48:08;;;;;;;2.45;1.00;;;;;;;19.37;31.15;102185.47;16142861;19;130623;-47
2023/04/05 09:53:30;;;;;;;3.30;1.00;;;;;;;19.33;31.24;102178.66;16140789;19;129476;-49
2023/04/05 09:58:52;;;;;;;6.20;1.30;;;;;;;19.28;31.30;102181.25;16143523;19;130281;-48
2023/04/05 10:04:14;;;;;;;1.55;0.82;;;;;;;19.22;30.97;102180.22;16142235;19;129786;-47
2023/04/05 10:09:37;;;;;;;3.50;1.00;;;;;;;19.19;31.15;102165.91;16142642;19;131428;-48
2023/04/05 10:15:01;;;;;;;2.53;1.02;;;;;;;19.14;31.17;102162.94;16141092;19;133321;-45
2023/04/05 10:20:24;;;;;;;1.35;1.00;;;;;;;19.10;30.96;102172.75;16137300;19;131277;-47
2023/04/05 10:26:04;;;;;;;2.28;1.17;;;;;;;19.06;31.00;102164.91;16138243;19;129445;-48
2023/04/05 10:31:48;;;;;;;1.35;0.70;;;;;;;19.03;31.39;102157.00;16133322;19;129564;-47
2023/04/05 10:37:29;;;;;;;2.67;1.10;;;;;;;18.99;31.24;102150.19;16122735;19;130083;-48
2023/04/05 10:42:52;;;;;;;3.55;0.95;;;;;;;18.93;31.05;102151.06;16125104;19;129367;-45
2023/04/05 10:48:34;;;;;;;1.67;0.90;;;;;;;18.92;31.52;102149.38;16126142;19;129691;-48
2023/04/05 10:53:56;;;;;;;2.97;1.10;;;;;;;18.86;31.54;102144.69;16123171;19;129768;-46
2023/04/05 10:59:21;;;;;;;2.85;0.85;;;;;;;18.84;31.53;102135.72;16123127;19;129573;-46
2023/04/05 11:04:43;;;;;;;1.73;0.90;;;;;;;18.80;31.62;102138.09;16121623;19;129443;-48
2023/04/05 11:10:12;;;;;;;1.88;0.80;;;;;;;18.79;31.23;102127.22;16123325;19;129630;-47
2023/04/05 11:15:35;;;;;;;1.27;1.00;;;;;;;18.76;31.64;102122.97;16121624;19;129444;-50
2023/04/05 11:21:07;;;;;;;1.63;0.90;;;;;;;18.74;31.32;102128.72;16119836;19;129787;-50
2023/04/05 11:26:51;;;;;;;1.65;0.80;;;;;;;18.72;31.30;102125.31;16119197;19;131307;-48
2023/04/05 11:32:13;;;;;;;1.33;0.90;;;;;;;18.69;31.59;102123.00;16120646;19;130230;-49
2023/04/05 11:38:00;;;;;;;2.53;1.00;;;;;;;18.68;31.45;102115.75;16120258;19;129344;-47
2023/04/05 11:43:26;;;;;;;;;;;;;;;18.63;31.79;102110.00;16120413;19;130426;-50
2023/04/05 11:48:49;;;;;;;2.17;0.80;;;;;;;18.62;31.35;102094.44;16121157;19;129475;-50
2023/04/05 11:54:11;;;;;;;2.58;0.90;;;;;;;18.61;31.43;102092.72;16119028;19;129747;-45
2023/04/05 11:59:34;;;;;;;1.25;0.80;;;;;;;18.59;31.70;102083.78;16120552;19;130899;-46
2023/04/05 12:04:57;;;;;;;1.88;0.60;;;;;;;18.58;31.52;102076.56;16118554;19;130906;-47
2023/04/05 12:10:20;;;;;;;1.05;0.70;;;;;;;18.58;31.64;102071.00;16119195;19;129712;-48
2023/04/05 12:15:41;;;;;;;1.75;0.75;;;;;;;18.57;31.74;102070.16;16120759;19;134676;-48
2023/04/05 12:21:06;;;;;;;1.23;0.63;;;;;;;18.55;31.55;102061.19;16119645;19;129675;-47
2023/04/05 12:26:33;;;;;;;1.65;0.60;;;;;;;18.54;31.73;102053.94;16117597;19;131903;-45
2023/04/05 12:31:56;;;;;;;0.60;0.52;;;;;;;18.53;31.72;102051.41;16115824;19;131214;-49
2023/04/05 12:37:18;;;;;;;1.05;0.60;;;;;;;18.52;31.65;102044.16;16114184;19;131405;-46
2023/04/05 12:42:41;;;;;;;4.68;1.10;;;;;;;18.51;31.56;102039.69;16113520;19;131071;-47
2023/04/05 12:48:02;;;;;;;4.55;1.00;;;;;;;18.51;31.81;102037.78;16113982;19;131182;-45
2023/04/05 12:53:27;;;;;;;2.67;1.40;;;;;;;18.48;31.35;102037.34;16110319;19;130188;-45
2023/04/05 12:58:50;;;;;;;3.70;1.25;;;;;;;18.45;31.35;102036.72;16115941;19;131321;-49
2023/04/05 13:04:11;;;;;;;5.00;1.90;;;;;;;18.43;31.16;102029.69;16114825;19;129999;-45
2023/04/05 13:09:37;;;;;;;2.72;1.80;;;;;;;18.40;30.46;102019.91;16115296;19;130069;-49
2023/04/05 13:14:59;;;;;;;3.33;2.08;;;;;;;18.42;30.45;102011.34;16112237;19;130175;-47
2023/04/05 13:20:21;;;;;;;4.18;2.15;;;;;;;18.44;29.86;102006.44;16114080;19;129836;-48
2023/04/05 13:25:46;;;;;;;3.35;2.17;;;;;;;18.45;29.52;102006.25;16113914;19;130069;-49
2023/04/05 13:31:07;;;;;;;4.00;1.87;;;;;;;18.46;29.15;101996.84;16114795;19;130325;-47
2023/04/05 13:36:30;;;;;;;4.05;1.70;;;;;;;18.49;29.51;101998.34;16114073;19;129847;-49
2023/04/05 13:41:52;;;;;;;3.20;1.60;;;;;;;18.49;29.39;101989.16;16112378;19;129734;-45
2023/04/05 13:47:14;;;;;;;2.55;1.38;;;;;;;18.49;29.26;101983.63;16108828;19;131623;-45
2023/04/05 13:52:36;;;;;;;3.45;1.08;;;;;;;18.48;29.50;101977.25;16110812;19;131724;-47
2023/04/05 13:57:58;;;;;;;2.22;1.10;;;;;;;18.49;29.51;101973.41;16112094;19;129535;-49
2023/04/05 14:03:20;;;;;;;1.25;0.95;;;;;;;18.48;29.49;101971.69;16112482;19;130091;-45
2023/04/05 14:08:42;;;;;;;3.20;1.05;;;;;;;18.49;29.54;101964.22;16125285;19;130200;-48
2023/04/05 14:14:05;;;;;;;3.60;1.25;;;;;;;18.46;29.67;101958.06;16124951;19;129599;-49
2023/04/05 14:19:27;;;;;;;1.83;1.10;;;;;;;18.47;30.19;101953.38;16124447;19;129566;-47
2023/04/05 14:24:49;;;;;;;2.72;0.95;;;;;;;18.46;30.23;101946.97;16121941;19;131508;-48
2023/04/05 14:30:11;;;;;;;2.97;1.10;;;;;;;18.45;29.87;101942.53;16124512;19;129271;-47
2023/04/05 14:35:33;;;;;;;2.42;1.13;;;;;;;18.45;30.08;101945.28;16125768;19;129574;-46
2023/04/05 14:40:55;;;;;;;2.33;1.10;;;;;;;18.44;30.26;101924.19;16123912;19;129795;-46
2023/04/05 14:46:17;;;;;;;1.75;0.98;;;;;;;18.44;30.45;101923.31;16120942;19;129862;-47
2023/04/05 14:51:39;;;;;;;1.23;0.85;;;;;;;18.43;30.00;101914.19;16123623;19;131063;-46
2023/04/05 14:57:01;;;;;;;1.00;0.70;;;;;;;18.42;30.31;101908.84;16121631;19;130658;-45
2023/04/05 15:02:24;;;;;;;2.08;1.00;;;;;;;18.41;30.17;101907.13;16125310;19;130216;-44
2023/04/05 15:07:46;;;;;;;1.08;0.85;;;;;;;18.41;30.31;101901.59;16124836;19;129885;-45
2023/04/05 15:13:09;;;;;;;1.30;0.90;;;;;;;18.40;30.44;101892.44;16120733;19;129352;-44
2023/04/05 15:18:31;;;;;;;1.33;1.02;;;;;;;18.38;30.30;101882.63;16118203;19;129140;-48
2023/04/05 15:23:52;;;;;;;1.13;0.80;;;;;;;18.38;30.38;101872.38;16120704;19;130518;-47
2023/04/05 15:29:14;;;;;;;4.10;1.08;;;;;;;18.37;30.31;101869.84;16120250;19;130098;-47
2023/04/05 15:34:37;;;;;;;2.15;1.08;;;;;;;18.37;30.47;101864.31;16120041;19;130894;-48
2023/04/05 15:39:59;;;;;;;3.17;1.15;;;;;;;18.37;30.86;101869.84;16122094;19;130484;-47
2023/04/05 15:45:24;;;;;;;2.50;1.00;;;;;;;18.36;30.54;101857.91;16119660;19;129738;-49
2023/04/05 15:50:47;;;;;;;4.88;1.30;;;;;;;18.37;30.74;101854.06;16119615;19;129665;-45
2023/04/05 15:56:09;;;;;;;2.83;1.10;;;;;;;18.36;30.83;101852.38;16120303;19;129934;-45
2023/04/05 16:01:31;;;;;;;3.75;1.42;;;;;;;18.34;30.81;101846.19;16116957;19;129803;-46
2023/04/05 16:06:53;;;;;;;5.50;1.33;;;;;;;18.31;30.75;101843.88;16112595;19;130335;-45
2023/04/05 16:12:15;;;;;;;3.75;1.45;;;;;;;18.29;30.80;101834.94;16111411;19;129674;-45
2023/04/05 16:17:37;;;;;;;4.65;1.10;;;;;;;18.27;31.34;101837.09;16113815;19;129945;-46
2023/04/05 16:23:00;;;;;;;2.00;0.88;;;;;;;18.25;31.37;101828.13;16113451;19;129673;-47
2023/04/05 16:28:21;;;;;;;2.42;0.90;;;;;;;18.24;31.58;101829.22;16111098;19;133724;-45
2023/04/05 16:33:43;;;;;;;3.13;0.70;;;;;;;18.24;31.50;101826.44;16113810;19;130002;-45
2023/04/05 16:39:06;;;;;;;3.03;0.70;;;;;;;18.36;31.55;101830.19;16113179;19;130958;-47
2023/04/05 16:44:28;;;;;;;4.38;0.90;;;;;;;18.80;31.48;101823.97;16114208;19;131255;-46
2023/04/05 16:49:52;;;;;;;3.13;0.50;;;;;;;19.37;30.80;101819.19;16112018;19;129701;-50
2023/04/05 16:55:15;;;;;;;6.97;0.88;;;;;;;19.87;30.75;101817.34;16109053;19;131318;-47
2023/04/05 17:00:37;;;;;;;3.38;0.70;;;;;;;20.29;30.32;101828.56;16110363;19;130258;-46
2023/04/05 17:05:58;;;;;;;6.90;0.88;;;;;;;20.56;30.24;101825.38;16114487;19;129661;-44
2023/04/05 17:11:21;;;;;;;9.05;1.40;;;;;;;20.61;30.09;101827.47;16111676;19;129624;-46
2023/04/05 17:16:43;;;;;;;8.80;1.67;;;;;;;20.55;29.78;101828.41;16109824;19;129555;-45
2023/04/05 17:22:05;;;;;;;8.23;1.20;;;;;;;20.49;30.15;101819.09;16109031;19;130120;-42
2023/04/05 17:27:27;;;;;;;3.85;0.82;;;;;;;20.39;30.39;101819.66;16111597;19;131159;-46
2023/04/05 17:32:50;;;;;;;3.88;1.08;;;;;;;20.31;30.31;101822.78;16112094;19;129869;-44
2023/04/05 17:38:15;;;;;;;8.02;0.98;;;;;;;20.23;30.29;101828.66;16113612;19;131009;-43
2023/04/05 17:43:37;;;;;;;4.68;1.00;;;;;;;20.13;30.70;101826.44;16125512;19;130658;-43
2023/04/05 17:48:59;;;;;;;8.35;1.58;;;;;;;20.01;30.89;101822.75;16127198;19;131154;-45
2023/04/05 17:54:21;;;;;;;7.18;1.10;;;;;;;19.87;30.88;101816.50;16114450;19;130501;-43
2023/04/05 17:59:43;;;;;;;7.05;1.00;;;;;;;19.77;31.37;101822.59;16118706;19;130465;-43
2023/04/05 18:05:06;;;;;;;8.23;1.20;;;;;;;19.73;31.68;101824.13;16127050;19;130414;-46
2023/04/05 18:10:28;;;;;;;5.82;1.02;;;;;;;19.71;31.52;101823.53;16128804;19;129502;-44
2023/04/05 18:15:57;;;;;;;9.30;1.15;;;;;;;19.74;31.44;101828.63;16128371;19;130272;-44
2023/04/05 18:21:19;;;;;;;3.75;0.70;;;;;;;19.84;31.86;101823.34;16126095;19;130177;-46
2023/04/05 18:26:41;;;;;;;8.38;0.70;;;;;;;20.18;31.60;101834.06;16127765;19;131214;-43
2023/04/05 18:32:04;;;;;;;7.82;0.90;;;;;;;20.60;31.14;101832.16;16125593;19;129804;-43
2023/04/05 18:37:26;;;;;;;5.05;0.70;;;;;;;21.01;30.39;101823.19;16128503;19;130975;-44
2023/04/05 18:42:48;;;;;;;2.08;0.57;;;;;;;21.37;30.21;101833.22;16123784;19;129738;-44
2023/04/05 18:48:10;;;;;;;3.53;0.70;;;;;;;21.67;30.32;101831.41;16115231;19;129840;-44
2023/04/05 18:53:32;;;;;;;1.63;0.60;;;;;;;21.93;29.94;101832.81;16122112;19;129668;-46
2023/04/05 18:58:54;;;;;;;3.25;0.52;;;;;;;22.08;29.73;101835.06;16122725;19;130372;-45
2023/04/05 19:04:16;;;;;;;2.88;0.65;;;;;;;22.12;29.90;101852.97;16124087;19;131397;-44
2023/04/05 19:09:38;;;;;;;2.17;0.68;;;;;;;22.07;29.69;101847.28;16124295;19;130713;-47
2023/04/05 19:15:00;;;;;;;1.88;0.77;;;;;;;21.95;29.85;101847.34;16119033;19;129488;-46
2023/04/05 19:20:22;;;;;;;4.85;0.60;;;;;;;21.80;29.73;101856.19;16121156;19;129831;-47
2023/04/05 19:25:44;;;;;;;2.15;0.93;;;;;;;21.60;29.91;101858.53;16124048;19;131105;-50
2023/04/05 19:31:09;;;;;;;9.50;1.50;;;;;;;21.37;30.28;101855.50;16121112;19;129931;-44
2023/04/05 19:36:35;;;;;;;7.50;1.30;;;;;;;21.20;30.15;101848.97;16120879;19;129099;-45
2023/04/05 19:41:57;;;;;;;4.35;1.40;;;;;;;21.02;30.68;101849.94;16120999;19;129613;-44
2023/04/05 19:47:20;;;;;;;3.47;1.17;;;;;;;20.90;30.56;101850.78;16117476;19;129344;-49
2023/04/05 19:52:46;;;;;;;4.18;1.10;;;;;;;20.81;30.99;101843.84;16119944;19;129700;-47
2023/04/05 19:58:09;;;;;;;3.90;1.33;;;;;;;20.69;30.98;101848.50;16120222;19;130299;-45
2023/04/05 20:03:33;;;;;;;1.27;0.68;;;;;;;20.59;31.20;101840.75;16116041;19;129731;-45
2023/04/05 20:09:02;;;;;;;7.68;1.33;;;;;;;20.56;31.51;101833.72;16119255;19;129594;-44
2023/04/05 20:14:50;;;;;;;1.95;1.08;;;;;;;20.56;31.45;101835.66;16115030;19;132341;-47
2023/04/05 20:20:13;;;;;;;6.43;1.30;;;;;;;20.52;31.51;101831.66;16116521;19;130045;-44
2023/04/05 20:25:42;;;;;;;5.82;1.10;;;;;;;20.48;31.31;101828.50;16113130;19;130117;-44
2023/04/05 20:31:25;;;;;;;3.08;1.00;;;;;;;20.41;31.16;101827.78;16114488;19;129596;-45
2023/04/05 20:36:49;;;;;;;6.80;1.00;;;;;;;20.33;31.55;101814.19;16115233;19;135136;-44
2023/04/05 20:42:11;;;;;;;4.72;0.93;;;;;;;20.23;31.46;101807.28;16115342;19;129984;-49
2023/04/05 20:47:33;;;;;;;3.72;0.90;;;;;;;20.14;31.40;101817.88;16111836;19;129775;-44
2023/04/05 20:52:56;;;;;;;2.88;0.73;;;;;;;20.04;31.70;101812.03;16114858;19;130041;-46
2023/04/05 20:58:18;;;;;;;4.55;1.17;;;;;;;19.95;31.53;101805.91;16110761;19;129481;-44
2023/04/05 21:03:40;;;;;;;2.63;0.80;;;;;;;19.85;31.52;101805.63;16110375;19;130026;-44
2023/04/05 21:09:02;;;;;;;2.05;0.95;;;;;;;19.77;31.72;101800.41;16113134;19;130193;-43
2023/04/05 21:14:26;;;;;;;1.65;0.90;;;;;;;19.68;31.89;101792.38;16109339;19;131771;-43
2023/04/05 21:19:48;;;;;;;2.97;0.77;;;;;;;19.61;31.95;101797.16;16112436;19;129480;-49
2023/04/05 21:25:10;;;;;;;3.33;1.15;;;;;;;19.53;31.91;101784.44;16115821;19;131103;-44
2023/04/05 21:30:32;;;;;;;1.38;0.90;;;;;;;19.47;32.23;101788.16;16111625;19;129700;-46
2023/04/05 21:35:54;;;;;;;4.00;0.90;;;;;;;19.42;32.06;101778.81;16111296;19;130134;-43
2023/04/05 21:41:16;;;;;;;3.05;1.10;;;;;;;19.35;32.36;101788.06;16109547;19;129457;-46
2023/04/05 21:46:38;;;;;;;2.40;0.75;;;;;;;19.31;32.36;101785.97;16110656;19;129121;-49
2023/04/05 21:52:00;;;;;;;2.70;0.90;;;;;;;19.24;32.35;101780.50;16107868;19;129698;-43
2023/04/05 21:57:22;;;;;;;3.30;0.98;;;;;;;19.19;32.10;101772.00;16108383;19;130157;-46
2023/04/05 22:02:45;;;;;;;1.23;0.60;;;;;;;19.15;32.32;101777.13;16107461;19;129749;-47
2023/04/05 22:08:07;;;;;;;1.98;1.08;;;;;;;19.12;32.58;101785.06;16108570;19;129284;-45
2023/04/05 22:13:30;;;;;;;1.05;0.65;;;;;;;19.05;32.48;101766.59;16109974;19;129819;-46
2023/04/05 22:18:53;;;;;;;1.42;0.88;;;;;;;19.01;32.40;101770.06;16109486;19;130767;-51
2023/04/05 22:24:15;;;;;;;2.55;1.00;;;;;;;18.97;32.40;101760.47;16105532;19;132177;-46
2023/04/05 22:29:38;;;;;;;4.38;1.10;;;;;;;18.94;32.74;101756.25;16117836;19;130275;-45
2023/04/05 22:35:00;;;;;;;1.73;0.90;;;;;;;18.89;32.80;101767.16;16122662;19;129565;-44
2023/04/05 22:40:25;;;;;;;1.50;0.85;;;;;;;18.86;32.82;101765.69;16123033;19;131203;-47
2023/04/05 22:45:50;;;;;;;1.00;0.80;;;;;;;18.83;32.47;101759.78;16119399;19;129950;-44
2023/04/05 22:51:12;;;;;;;2.15;0.90;;;;;;;18.84;32.76;101747.56;16123289;19;130046;-45
2023/04/05 22:56:34;;;;;;;2.30;1.25;;;;;;;18.84;32.55;101755.91;16121777;19;131077;-48
2023/04/05 23:01:56;;;;;;;1.92;1.35;;;;;;;18.80;32.96;101743.59;16120270;19;130071;-47
2023/04/05 23:07:18;;;;;;;8.02;1.33;;;;;;;18.78;33.18;101743.78;16120272;19;129440;-43
2023/04/05 23:12:41;;;;;;;6.60;1.70;;;;;;;18.74;32.81;101740.63;16120855;19;131264;-45
2023/04/05 23:18:03;;;;;;;3.25;1.55;;;;;;;18.71;32.68;101734.69;16119393;19;129521;-46
2023/04/05 23:23:25;;;;;;;2.50;1.40;;;;;;;18.68;33.01;101721.28;16120409;19;129891;-47
2023/04/05 23:28:47;;;;;;;4.00;1.15;;;;;;;18.65;32.68;101728.16;16117828;19;130506;-49
2023/04/05 23:34:09;;;;;;;3.20;1.13;;;;;;;18.63;32.68;101712.81;16117413;19;129755;-45
2023/04/05 23:39:31;;;;;;;2.47;1.60;;;;;;;18.60;33.12;101708.56;16117113;19;131941;-48
2023/04/05 23:44:53;;;;;;;1.15;0.98;;;;;;;18.55;33.07;101700.09;16118545;19;129575;-46
2023/04/05 23:50:15;;;;;;;3.63;0.90;;;;;;;18.54;33.03;101703.94;16118353;19;132277;-46
2023/04/05 23:55:40;;;;;;;1.85;0.90;;;;;;;18.51;33.12;101698.84;16117842;19;132439;-44
